PWSweather.com
Personal Weather Stations
Station Observations
KAZTUCSO57
Countryside Manor, Tucson, AZ 85742

Countryside ManorTucson, AZ 85742

Lat: 32.3692, Lon: -111.066

Elevation: 2307

Station Type: Davis VP Pro+ 6163

http://frogville.us

Latest ConditionsUpdated 3:00:01 PM MST Sunday, Jan 19, 2020
Currently Today's Max Today's Min Today's Average
Temperature 80.0°F26.7°C 80.0°F26.7°C 45.3°F7.4°C 56.0°F13.3°C
Dew Point 38.9°F3.8°C 39.6°F4.2°C 35.9°F2.2°C 37.5°F3.1°C
Winds 2.3 mph WNW3.7 kmh WNW 3.5 mph -5.6 kmh - - 1.0 mph 1.6 kmh
Wind Gusts 3.5 mph5.6 kmh 5.8 mph9.3 kmh - -
Humidity 23% 74% 21% 55%
Pressure 30.03 in1016.9 mb 30.16 in1021.3 mb 30.03 in1016.9 mb -
Hour Temp Dew Point Humidity Winds Wind Gusts Pressure Precip Precip Rate Daily Precip Total
03:00 PM 80.0°F26.7°C 38.9°F3.8°C 23% 2.3 mph WNW3.7 kmh WNW 3.5 mph5.6 kmh 30.03 in1016.9 mb - 0.00 in0.0 mm 0.00 in0.0 mm
02:50 PM 79.7°F26.5°C 38.6°F3.7°C 23% 2.3 mph NW3.7 kmh NW 4.6 mph7.4 kmh 30.03 in1016.9 mb - 0.00 in0.0 mm 0.00 in0.0 mm
02:40 PM 79.5°F26.4°C 39.6°F4.2°C 24% 2.3 mph WNW3.7 kmh WNW 3.5 mph5.6 kmh 30.03 in1016.9 mb - 0.00 in0.0 mm 0.00 in0.0 mm
02:30 PM 80.0°F26.7°C 38.9°F3.8°C 23% 1.2 mph WSW1.9 kmh WSW 2.3 mph3.7 kmh 30.03 in1016.9 mb - 0.00 in0.0 mm 0.00 in0.0 mm
02:20 PM 79.7°F26.5°C 36.3°F2.4°C 21% Calm Calm 1.2 mph1.9 kmh 30.04 in1017.3 mb - 0.00 in0.0 mm 0.00 in0.0 mm
02:10 PM 79.6°F26.4°C 36.2°F2.3°C 21% Calm Calm 3.5 mph5.6 kmh 30.04 in1017.3 mb - 0.00 in0.0 mm 0.00 in0.0 mm
02:00 PM 79.3°F26.3°C 38.3°F3.5°C 23% Calm Calm 1.2 mph1.9 kmh 30.04 in1017.3 mb - 0.00 in0.0 mm 0.00 in0.0 mm
01:50 PM 78.7°F25.9°C 37.8°F3.2°C 23% Calm Calm 1.2 mph1.9 kmh 30.05 in1017.6 mb - 0.00 in0.0 mm 0.00 in0.0 mm
01:40 PM 78.3°F25.7°C 39.6°F4.2°C 25% 1.2 mph N1.9 kmh N 1.2 mph1.9 kmh 30.05 in1017.6 mb - 0.00 in0.0 mm 0.00 in0.0 mm
01:30 PM 77.7°F25.4°C 39.1°F3.9°C 25% 1.2 mph N1.9 kmh N 2.3 mph3.7 kmh 30.06 in1017.9 mb - 0.00 in0.0 mm 0.00 in0.0 mm
01:20 PM 76.3°F24.6°C 38.9°F3.8°C 26% Calm Calm 1.2 mph1.9 kmh 30.06 in1017.9 mb - 0.00 in0.0 mm 0.00 in0.0 mm
01:10 PM 76.1°F24.5°C 38.7°F3.7°C 26% 1.2 mph N1.9 kmh N 1.2 mph1.9 kmh 30.07 in1018.3 mb - 0.00 in0.0 mm 0.00 in0.0 mm
01:00 PM 75.7°F24.3°C 39.4°F4.1°C 27% 1.2 mph N1.9 kmh N 3.5 mph5.6 kmh 30.08 in1018.6 mb - 0.00 in0.0 mm 0.00 in0.0 mm
12:50 PM 74.7°F23.7°C 39.4°F4.1°C 28% 1.2 mph NW1.9 kmh NW 3.5 mph5.6 kmh 30.09 in1019.0 mb - 0.00 in0.0 mm 0.00 in0.0 mm
12:40 PM 74.3°F23.5°C 37.2°F2.9°C 26% 1.2 mph N1.9 kmh N 3.5 mph5.6 kmh 30.10 in1019.3 mb - 0.00 in0.0 mm 0.00 in0.0 mm
12:30 PM 73.5°F23.1°C 38.4°F3.6°C 28% 1.2 mph NW1.9 kmh NW 3.5 mph5.6 kmh 30.11 in1019.6 mb - 0.00 in0.0 mm 0.00 in0.0 mm
12:20 PM 73.0°F22.8°C 37.9°F3.3°C 28% 1.2 mph WNW1.9 kmh WNW 3.5 mph5.6 kmh 30.11 in1019.6 mb - 0.00 in0.0 mm 0.00 in0.0 mm
12:10 PM 72.1°F22.3°C 37.2°F2.9°C 28% 1.2 mph NW1.9 kmh NW 3.5 mph5.6 kmh 30.12 in1020.0 mb - 0.00 in0.0 mm 0.00 in0.0 mm
12:00 PM 72.1°F22.3°C 36.3°F2.4°C 27% 1.2 mph NE1.9 kmh NE 2.3 mph3.7 kmh 30.13 in1020.3 mb - 0.00 in0.0 mm 0.00 in0.0 mm
11:50 AM 71.1°F21.7°C 38.9°F3.8°C 31% 1.2 mph NW1.9 kmh NW 2.3 mph3.7 kmh 30.14 in1020.7 mb - 0.00 in0.0 mm 0.00 in0.0 mm
11:40 AM 69.7°F20.9°C 39.3°F4.1°C 33% Calm Calm -- 30.14 in1020.7 mb - 0.00 in0.0 mm 0.00 in0.0 mm
11:30 AM 68.2°F20.1°C 38.8°F3.8°C 34% 1.2 mph NW1.9 kmh NW 2.3 mph3.7 kmh 30.15 in1021.0 mb - 0.00 in0.0 mm 0.00 in0.0 mm
11:20 AM 67.0°F19.4°C 38.4°F3.6°C 35% 1.2 mph NNE1.9 kmh NNE 3.5 mph5.6 kmh 30.15 in1021.0 mb - 0.00 in0.0 mm 0.00 in0.0 mm
11:10 AM 66.0°F18.9°C 37.5°F3.1°C 35% 1.2 mph E1.9 kmh E 2.3 mph3.7 kmh 30.15 in1021.0 mb - 0.00 in0.0 mm 0.00 in0.0 mm
11:00 AM 65.2°F18.4°C 37.6°F3.1°C 36% Calm Calm 2.3 mph3.7 kmh 30.15 in1021.0 mb - 0.00 in0.0 mm 0.00 in0.0 mm
10:50 AM 64.4°F18.0°C 37.5°F3.1°C 37% 2.3 mph E3.7 kmh E 3.5 mph5.6 kmh 30.15 in1021.0 mb - 0.00 in0.0 mm 0.00 in0.0 mm
10:40 AM 63.2°F17.3°C 37.1°F2.8°C 38% 1.2 mph NNE1.9 kmh NNE 3.5 mph5.6 kmh 30.15 in1021.0 mb - 0.00 in0.0 mm 0.00 in0.0 mm
10:30 AM 62.0°F16.7°C 37.4°F3.0°C 40% 1.2 mph NE1.9 kmh NE 2.3 mph3.7 kmh 30.16 in1021.3 mb - 0.00 in0.0 mm 0.00 in0.0 mm
10:20 AM 61.1°F16.2°C 37.2°F2.9°C 41% 1.2 mph SSE1.9 kmh SSE 3.5 mph5.6 kmh 30.16 in1021.3 mb - 0.00 in0.0 mm 0.00 in0.0 mm
10:10 AM 60.3°F15.7°C 37.1°F2.8°C 42% 2.3 mph E3.7 kmh E 4.6 mph7.4 kmh 30.16 in1021.3 mb - 0.00 in0.0 mm 0.00 in0.0 mm
10:00 AM 59.3°F15.2°C 37.4°F3.0°C 44% 1.2 mph ESE1.9 kmh ESE 2.3 mph3.7 kmh 30.16 in1021.3 mb - 0.00 in0.0 mm 0.00 in0.0 mm
09:50 AM 58.0°F14.4°C 37.3°F2.9°C 46% 1.2 mph NE1.9 kmh NE 4.6 mph7.4 kmh 30.16 in1021.3 mb - 0.00 in0.0 mm 0.00 in0.0 mm
09:40 AM 57.0°F13.9°C 37.5°F3.1°C 48% 1.2 mph NE1.9 kmh NE 3.5 mph5.6 kmh 30.16 in1021.3 mb - 0.00 in0.0 mm 0.00 in0.0 mm
09:30 AM 55.8°F13.2°C 37.9°F3.3°C 51% 1.2 mph NE1.9 kmh NE 2.3 mph3.7 kmh 30.16 in1021.3 mb - 0.00 in0.0 mm 0.00 in0.0 mm
09:20 AM 54.7°F12.6°C 37.8°F3.2°C 53% 1.2 mph ESE1.9 kmh ESE 2.3 mph3.7 kmh 30.16 in1021.3 mb - 0.00 in0.0 mm 0.00 in0.0 mm
09:10 AM 53.4°F11.9°C 37.6°F3.1°C 55% 1.2 mph NE1.9 kmh NE 3.5 mph5.6 kmh 30.16 in1021.3 mb - 0.00 in0.0 mm 0.00 in0.0 mm
09:00 AM 52.1°F11.2°C 37.3°F2.9°C 57% 2.3 mph E3.7 kmh E 3.5 mph5.6 kmh 30.16 in1021.3 mb - 0.00 in0.0 mm 0.00 in0.0 mm
08:50 AM 51.0°F10.6°C 37.2°F2.9°C 59% 1.2 mph E1.9 kmh E 2.3 mph3.7 kmh 30.16 in1021.3 mb - 0.00 in0.0 mm 0.00 in0.0 mm
08:40 AM 49.9°F9.9°C 37.0°F2.8°C 61% 1.2 mph NNE1.9 kmh NNE 3.5 mph5.6 kmh 30.16 in1021.3 mb - 0.00 in0.0 mm 0.00 in0.0 mm
08:30 AM 49.0°F9.4°C 36.5°F2.5°C 62% 2.3 mph N3.7 kmh N 2.3 mph3.7 kmh 30.16 in1021.3 mb - 0.00 in0.0 mm 0.00 in0.0 mm
08:20 AM 48.6°F9.2°C 36.6°F2.6°C 63% 1.2 mph NE1.9 kmh NE 3.5 mph5.6 kmh 30.16 in1021.3 mb - 0.00 in0.0 mm 0.00 in0.0 mm
08:10 AM 48.1°F8.9°C 36.1°F2.3°C 63% 1.2 mph ENE1.9 kmh ENE 3.5 mph5.6 kmh 30.16 in1021.3 mb - 0.00 in0.0 mm 0.00 in0.0 mm
08:00 AM 47.7°F8.7°C 36.1°F2.3°C 64% 2.3 mph NNE3.7 kmh NNE 3.5 mph5.6 kmh 30.16 in1021.3 mb - 0.00 in0.0 mm 0.00 in0.0 mm
07:50 AM 47.7°F8.7°C 36.1°F2.3°C 64% 1.2 mph NE1.9 kmh NE 3.5 mph5.6 kmh 30.16 in1021.3 mb - 0.00 in0.0 mm 0.00 in0.0 mm
07:40 AM 46.8°F8.2°C 36.0°F2.2°C 66% 2.3 mph NE3.7 kmh NE 4.6 mph7.4 kmh 30.16 in1021.3 mb - 0.00 in0.0 mm 0.00 in0.0 mm
07:30 AM 45.9°F7.7°C 35.9°F2.2°C 68% 3.5 mph NE5.6 kmh NE 5.8 mph9.3 kmh 30.16 in1021.3 mb - 0.00 in0.0 mm 0.00 in0.0 mm
07:20 AM 45.7°F7.6°C 36.1°F2.3°C 69% 2.3 mph NE3.7 kmh NE 4.6 mph7.4 kmh 30.16 in1021.3 mb - 0.00 in0.0 mm 0.00 in0.0 mm
07:10 AM 45.6°F7.6°C 36.0°F2.2°C 69% 1.2 mph NE1.9 kmh NE 3.5 mph5.6 kmh 30.16 in1021.3 mb - 0.00 in0.0 mm 0.00 in0.0 mm
07:00 AM 45.8°F7.7°C 36.2°F2.3°C 69% Calm Calm 3.5 mph5.6 kmh 30.16 in1021.3 mb - 0.00 in0.0 mm 0.00 in0.0 mm
06:50 AM 46.0°F7.8°C 36.4°F2.4°C 69% 2.3 mph NE3.7 kmh NE 4.6 mph7.4 kmh 30.15 in1021.0 mb - 0.00 in0.0 mm 0.00 in0.0 mm
06:40 AM 46.1°F7.8°C 36.5°F2.5°C 69% 1.2 mph NE1.9 kmh NE 1.2 mph1.9 kmh 30.15 in1021.0 mb - 0.00 in0.0 mm 0.00 in0.0 mm
06:30 AM 45.9°F7.7°C 37.0°F2.8°C 71% 2.3 mph NE3.7 kmh NE 3.5 mph5.6 kmh 30.14 in1020.7 mb - 0.00 in0.0 mm 0.00 in0.0 mm
06:20 AM 45.6°F7.6°C 37.1°F2.8°C 72% 1.2 mph ENE1.9 kmh ENE 3.5 mph5.6 kmh 30.14 in1020.7 mb - 0.00 in0.0 mm 0.00 in0.0 mm
06:10 AM 45.3°F7.4°C 36.8°F2.7°C 72% 1.2 mph ENE1.9 kmh ENE 3.5 mph5.6 kmh 30.14 in1020.7 mb - 0.00 in0.0 mm 0.00 in0.0 mm
06:00 AM 45.3°F7.4°C 36.8°F2.7°C 72% Calm Calm 2.3 mph3.7 kmh 30.14 in1020.7 mb - 0.00 in0.0 mm 0.00 in0.0 mm
05:50 AM 45.6°F7.6°C 36.7°F2.6°C 71% Calm Calm 1.2 mph1.9 kmh 30.14 in1020.7 mb - 0.00 in0.0 mm 0.00 in0.0 mm
05:40 AM 45.8°F7.7°C 36.9°F2.7°C 71% Calm Calm -- 30.14 in1020.7 mb - 0.00 in0.0 mm 0.00 in0.0 mm
05:30 AM 45.7°F7.6°C 36.8°F2.7°C 71% 2.3 mph NE3.7 kmh NE 3.5 mph5.6 kmh 30.14 in1020.7 mb - 0.00 in0.0 mm 0.00 in0.0 mm
05:20 AM 45.7°F7.6°C 36.8°F2.7°C 71% 1.2 mph NE1.9 kmh NE 3.5 mph5.6 kmh 30.14 in1020.7 mb - 0.00 in0.0 mm 0.00 in0.0 mm
05:10 AM 45.6°F7.6°C 36.7°F2.6°C 71% 1.2 mph E1.9 kmh E 2.3 mph3.7 kmh 30.14 in1020.7 mb - 0.00 in0.0 mm 0.00 in0.0 mm
05:00 AM 45.6°F7.6°C 36.7°F2.6°C 71% Calm Calm 1.2 mph1.9 kmh 30.13 in1020.3 mb - 0.00 in0.0 mm 0.00 in0.0 mm
04:50 AM 45.6°F7.6°C 36.7°F2.6°C 71% 1.2 mph NE1.9 kmh NE 1.2 mph1.9 kmh 30.13 in1020.3 mb - 0.00 in0.0 mm 0.00 in0.0 mm
04:40 AM 45.6°F7.6°C 36.7°F2.6°C 71% 1.2 mph ENE1.9 kmh ENE 3.5 mph5.6 kmh 30.13 in1020.3 mb - 0.00 in0.0 mm 0.00 in0.0 mm
04:30 AM 45.7°F7.6°C 36.8°F2.7°C 71% 1.2 mph ENE1.9 kmh ENE 3.5 mph5.6 kmh 30.13 in1020.3 mb - 0.00 in0.0 mm 0.00 in0.0 mm
04:20 AM 45.8°F7.7°C 36.9°F2.7°C 71% Calm Calm 1.2 mph1.9 kmh 30.13 in1020.3 mb - 0.00 in0.0 mm 0.00 in0.0 mm
04:10 AM 46.1°F7.8°C 36.9°F2.7°C 70% 1.2 mph NE1.9 kmh NE 3.5 mph5.6 kmh 30.13 in1020.3 mb - 0.00 in0.0 mm 0.00 in0.0 mm
04:00 AM 46.8°F8.2°C 36.8°F2.7°C 68% Calm Calm 1.2 mph1.9 kmh 30.12 in1020.0 mb - 0.00 in0.0 mm 0.00 in0.0 mm
03:50 AM 47.5°F8.6°C 37.1°F2.8°C 67% Calm Calm 2.3 mph3.7 kmh 30.12 in1020.0 mb - 0.00 in0.0 mm 0.00 in0.0 mm
03:40 AM 48.2°F9.0°C 37.3°F2.9°C 66% 1.2 mph E1.9 kmh E 1.2 mph1.9 kmh 30.12 in1020.0 mb - 0.00 in0.0 mm 0.00 in0.0 mm
03:30 AM 48.3°F9.1°C 37.5°F3.1°C 66% 1.2 mph NE1.9 kmh NE 2.3 mph3.7 kmh 30.12 in1020.0 mb - 0.00 in0.0 mm 0.00 in0.0 mm
03:20 AM 46.9°F8.3°C 37.3°F2.9°C 69% 2.3 mph NE3.7 kmh NE 3.5 mph5.6 kmh 30.13 in1020.3 mb - 0.00 in0.0 mm 0.00 in0.0 mm
03:10 AM 46.5°F8.1°C 37.6°F3.1°C 71% Calm Calm 1.2 mph1.9 kmh 30.13 in1020.3 mb - 0.00 in0.0 mm 0.00 in0.0 mm
03:00 AM 46.4°F8.0°C 37.5°F3.1°C 71% Calm Calm 1.2 mph1.9 kmh 30.13 in1020.3 mb - 0.00 in0.0 mm 0.00 in0.0 mm
02:50 AM 46.1°F7.8°C 37.6°F3.1°C 72% 1.2 mph E1.9 kmh E 2.3 mph3.7 kmh 30.13 in1020.3 mb - 0.00 in0.0 mm 0.00 in0.0 mm
02:40 AM 46.0°F7.8°C 37.5°F3.1°C 72% Calm Calm 2.3 mph3.7 kmh 30.14 in1020.7 mb - 0.00 in0.0 mm 0.00 in0.0 mm
02:30 AM 46.3°F7.9°C 37.4°F3.0°C 71% Calm Calm -- 30.14 in1020.7 mb - 0.00 in0.0 mm 0.00 in0.0 mm
02:20 AM 46.6°F8.1°C 37.3°F2.9°C 70% Calm Calm -- 30.14 in1020.7 mb - 0.00 in0.0 mm 0.00 in0.0 mm
02:10 AM 46.7°F8.2°C 37.5°F3.1°C 70% Calm Calm 1.2 mph1.9 kmh 30.14 in1020.7 mb - 0.00 in0.0 mm 0.00 in0.0 mm
02:00 AM 46.9°F8.3°C 37.6°F3.1°C 70% Calm Calm -- 30.14 in1020.7 mb - 0.00 in0.0 mm 0.00 in0.0 mm
01:50 AM 46.9°F8.3°C 37.6°F3.1°C 70% Calm Calm 1.2 mph1.9 kmh 30.14 in1020.7 mb - 0.00 in0.0 mm 0.00 in0.0 mm
01:40 AM 47.0°F8.3°C 38.1°F3.4°C 71% Calm Calm 2.3 mph3.7 kmh 30.14 in1020.7 mb - 0.00 in0.0 mm 0.00 in0.0 mm
01:30 AM 47.1°F8.4°C 38.2°F3.4°C 71% 1.2 mph NE1.9 kmh NE 3.5 mph5.6 kmh 30.14 in1020.7 mb - 0.00 in0.0 mm 0.00 in0.0 mm
01:20 AM 47.2°F8.4°C 38.3°F3.5°C 71% Calm Calm 1.2 mph1.9 kmh 30.14 in1020.7 mb - 0.00 in0.0 mm 0.00 in0.0 mm
01:10 AM 47.5°F8.6°C 38.2°F3.4°C 70% 1.2 mph ENE1.9 kmh ENE 2.3 mph3.7 kmh 30.15 in1021.0 mb - 0.00 in0.0 mm 0.00 in0.0 mm
01:00 AM 47.8°F8.8°C 38.5°F3.6°C 70% Calm Calm 1.2 mph1.9 kmh 30.16 in1021.3 mb - 0.00 in0.0 mm 0.00 in0.0 mm
12:50 AM 47.8°F8.8°C 38.5°F3.6°C 70% 1.2 mph NNE1.9 kmh NNE 2.3 mph3.7 kmh 30.15 in1021.0 mb - 0.00 in0.0 mm 0.00 in0.0 mm
12:40 AM 47.5°F8.6°C 38.6°F3.7°C 71% Calm Calm 2.3 mph3.7 kmh 30.15 in1021.0 mb - 0.00 in0.0 mm 0.00 in0.0 mm
12:30 AM 47.4°F8.6°C 38.8°F3.8°C 72% 1.2 mph E1.9 kmh E 2.3 mph3.7 kmh 30.15 in1021.0 mb - 0.00 in0.0 mm 0.00 in0.0 mm
12:20 AM 47.2°F8.4°C 38.9°F3.8°C 73% Calm Calm 1.2 mph1.9 kmh 30.16 in1021.3 mb - 0.00 in0.0 mm 0.00 in0.0 mm
12:10 AM 46.8°F8.2°C 38.9°F3.8°C 74% Calm Calm 3.5 mph5.6 kmh 30.15 in1021.0 mb - 0.00 in0.0 mm 0.00 in0.0 mm
12:00 AM 46.4°F8.0°C 38.6°F3.7°C 74% Calm Calm 1.2 mph1.9 kmh 30.16 in1021.3 mb - 0.00 in0.0 mm 0.00 in0.0 mm